Time;durP1;ratioP1;P1;durP2;ratioP2;P2;SDS_P1;SDS_P2;PMS_P1;PMS_P2;Temp;Humidity;BMP_temperature;BMP_pressure;BME280_temperature;BME280_humidity;BME280_pressure;Samples;Min_cycle;Max_cycle;Signal;HPM_P1;HPM_P2
2023/03/09 00:01:18;;;;;;;26.63;12.68;;;;;;;0.38;100.00;99035.47;5031872;28;20108;-68
2023/03/09 00:03:43;;;;;;;29.17;13.05;;;;;;;0.39;100.00;99028.66;5026361;28;20044;-67
2023/03/09 00:06:09;;;;;;;26.35;12.43;;;;;;;0.40;100.00;99017.59;5012633;28;20105;-68
2023/03/09 00:08:34;;;;;;;27.08;13.00;;;;;;;0.40;100.00;99008.19;5032578;28;20025;-68
2023/03/09 00:11:00;;;;;;;27.80;12.73;;;;;;;0.41;100.00;99007.38;5031579;28;20401;-67
2023/03/09 00:13:25;;;;;;;28.55;14.27;;;;;;;0.42;100.00;99004.03;5030816;28;20053;-67
2023/03/09 00:15:50;;;;;;;27.17;12.50;;;;;;;0.44;100.00;99019.44;5031671;28;20018;-67
2023/03/09 00:18:21;;;;;;;29.45;13.27;;;;;;;0.44;100.00;99009.19;5031497;28;20150;-67
2023/03/09 00:20:46;;;;;;;28.27;13.13;;;;;;;0.41;100.00;98986.91;5030872;28;20026;-67
2023/03/09 00:23:12;;;;;;;28.73;13.80;;;;;;;0.40;100.00;99005.63;5030329;28;20083;-68
2023/03/09 00:25:38;;;;;;;29.17;13.63;;;;;;;0.39;100.00;99020.97;5031460;28;20032;-68
2023/03/09 00:28:04;;;;;;;30.85;14.05;;;;;;;0.37;100.00;99040.53;5031431;28;20100;-67
2023/03/09 00:30:30;;;;;;;30.08;13.40;;;;;;;0.36;100.00;99037.09;5031342;28;20045;-67
2023/03/09 00:32:55;;;;;;;28.92;13.07;;;;;;;0.37;100.00;99051.66;5027110;28;20408;-68
2023/03/09 00:35:21;;;;;;;32.50;14.13;;;;;;;0.37;100.00;99049.09;5028708;28;20079;-68
2023/03/09 00:37:46;;;;;;;28.98;13.60;;;;;;;0.39;100.00;99064.50;5029233;28;20079;-67
2023/03/09 00:40:14;;;;;;;30.05;14.02;;;;;;;0.40;100.00;99068.81;5030277;28;20055;-67
2023/03/09 00:42:42;;;;;;;28.65;12.95;;;;;;;0.41;100.00;99062.91;5029031;28;20095;-67
2023/03/09 00:45:08;;;;;;;28.58;13.48;;;;;;;0.40;100.00;99072.25;5018522;28;20065;-67
2023/03/09 00:47:34;;;;;;;27.80;12.77;;;;;;;0.41;100.00;99074.00;5029129;28;20136;-67
2023/03/09 00:49:59;;;;;;;28.88;13.63;;;;;;;0.41;100.00;99070.59;5028647;28;20492;-67
2023/03/09 00:52:24;;;;;;;29.60;13.63;;;;;;;0.40;100.00;99085.06;5028949;28;20104;-67
2023/03/09 00:54:53;;;;;;;26.67;12.85;;;;;;;0.42;100.00;99080.88;5028703;28;20036;-67
2023/03/09 00:57:22;;;;;;;28.10;12.90;;;;;;;0.44;100.00;99078.38;5030888;28;20022;-67
2023/03/09 00:59:47;;;;;;;30.27;13.73;;;;;;;0.44;100.00;99083.50;5030733;28;20083;-67
2023/03/09 01:02:13;;;;;;;30.23;13.20;;;;;;;0.43;100.00;99092.84;5030577;28;20033;-68
2023/03/09 01:04:38;;;;;;;30.08;13.52;;;;;;;0.43;100.00;99097.13;5028460;28;20038;-67
2023/03/09 01:07:03;;;;;;;26.67;12.35;;;;;;;0.43;100.00;99095.41;5030442;28;20036;-67
2023/03/09 01:09:29;;;;;;;28.20;12.70;;;;;;;0.42;100.00;99098.81;5012824;28;20060;-67
2023/03/09 01:11:54;;;;;;;28.50;12.82;;;;;;;0.42;100.00;99127.00;5030155;28;20029;-67
2023/03/09 01:14:19;;;;;;;29.55;12.63;;;;;;;0.43;100.00;99138.09;5027892;28;20424;-67
2023/03/09 01:16:45;;;;;;;30.30;12.80;;;;;;;0.42;100.00;99150.06;5030589;28;20025;-67
2023/03/09 01:19:10;;;;;;;28.25;12.50;;;;;;;0.41;100.00;99153.44;5030566;28;20442;-68
2023/03/09 01:21:35;;;;;;;27.38;12.40;;;;;;;0.42;100.00;99147.50;5030418;28;20025;-68
2023/03/09 01:24:01;;;;;;;29.40;13.25;;;;;;;0.44;100.00;99145.00;5029264;28;20056;-67
2023/03/09 01:26:26;;;;;;;30.38;13.40;;;;;;;0.45;100.00;99144.16;5030227;28;20057;-67
2023/03/09 01:28:51;;;;;;;28.60;12.45;;;;;;;0.44;100.00;99139.88;5029584;28;20290;-68
2023/03/09 01:31:17;;;;;;;27.55;13.40;;;;;;;0.46;100.00;99154.44;5030200;28;20028;-68
2023/03/09 01:33:43;;;;;;;30.67;12.82;;;;;;;0.49;100.00;99166.50;5027392;28;20121;-67
2023/03/09 01:36:12;;;;;;;29.95;13.07;;;;;;;0.50;100.00;99166.56;5030410;28;20097;-68
2023/03/09 01:38:38;;;;;;;30.48;13.52;;;;;;;0.55;100.00;99168.44;5030141;28;20060;-68
2023/03/09 01:41:03;;;;;;;28.77;13.05;;;;;;;0.55;100.00;99163.31;5030143;28;20056;-67
2023/03/09 01:43:39;;;;;;;30.95;13.57;;;;;;;0.59;100.00;99171.16;5027839;28;20029;-67
2023/03/09 01:46:20;;;;;;;31.05;13.35;;;;;;;0.63;100.00;99178.13;5006951;28;20123;-68
2023/03/09 01:48:47;;;;;;;32.35;13.60;;;;;;;0.65;100.00;99176.53;5026735;28;20052;-68
2023/03/09 01:51:12;;;;;;;29.48;13.38;;;;;;;0.68;100.00;99170.59;5029927;28;20345;-67
2023/03/09 01:53:38;;;;;;;32.03;14.10;;;;;;;0.70;100.00;99174.13;5028665;28;20033;-68
2023/03/09 01:56:04;;;;;;;29.48;13.20;;;;;;;0.70;100.00;99176.69;5028360;28;20047;-67
2023/03/09 01:58:31;;;;;;;29.05;13.30;;;;;;;0.74;100.00;99178.53;5030045;28;20029;-67
2023/03/09 02:00:56;;;;;;;30.27;13.63;;;;;;;0.77;100.00;99188.91;5029940;28;20389;-67
2023/03/09 02:03:26;;;;;;;32.35;14.13;;;;;;;0.79;100.00;99188.94;5029038;28;20021;-67
2023/03/09 02:05:58;;;;;;;31.08;13.80;;;;;;;0.81;100.00;99197.56;5028435;28;20488;-67
2023/03/09 02:08:26;;;;;;;32.72;14.32;;;;;;;0.81;100.00;99218.97;5009078;28;20492;-67
2023/03/09 02:10:56;;;;;;;32.50;14.38;;;;;;;0.79;100.00;99218.00;5028390;28;20033;-67
2023/03/09 02:13:27;;;;;;;31.77;14.23;;;;;;;0.82;100.00;99213.00;5025215;28;20029;-67
2023/03/09 02:15:53;;;;;;;31.73;14.25;;;;;;;0.83;100.00;99209.63;5011643;28;20036;-68
2023/03/09 02:18:18;;;;;;;32.28;14.45;;;;;;;0.83;100.00;99207.06;5028589;28;20033;-67
2023/03/09 02:20:53;;;;;;;30.65;13.73;;;;;;;0.82;100.00;99195.03;5028167;28;20040;-67
2023/03/09 02:23:30;;;;;;;34.13;14.20;;;;;;;0.82;100.00;99189.91;5029480;28;20207;-67
2023/03/09 02:26:18;;;;;;;30.95;13.45;;;;;;;0.85;100.00;99204.53;5020916;28;20039;-67
2023/03/09 02:28:44;;;;;;;33.05;13.93;;;;;;;0.88;100.00;99193.53;5033673;28;20025;-68
2023/03/09 02:31:11;;;;;;;31.13;13.48;;;;;;;0.91;100.00;99216.72;5033592;28;20108;-67
2023/03/09 02:33:36;;;;;;;32.42;14.05;;;;;;;0.90;100.00;99210.72;5032357;28;20083;-67
2023/03/09 02:36:01;;;;;;;29.50;13.25;;;;;;;0.85;100.00;99218.25;5026975;28;20026;-68
2023/03/09 02:38:27;;;;;;;31.30;13.93;;;;;;;0.81;100.00;99224.09;5031274;28;20029;-67
2023/03/09 02:40:56;;;;;;;32.00;13.88;;;;;;;0.79;100.00;99229.97;5033426;28;20021;-67
2023/03/09 02:43:27;;;;;;;32.03;14.05;;;;;;;0.77;100.00;99242.72;5033455;28;20400;-68
2023/03/09 02:45:52;;;;;;;33.75;14.20;;;;;;;0.73;100.00;99238.31;5030161;28;20404;-67
2023/03/09 02:48:17;;;;;;;33.75;14.55;;;;;;;0.73;100.00;99235.75;5031849;28;20036;-67
2023/03/09 02:50:43;;;;;;;31.67;13.90;;;;;;;0.74;100.00;99232.38;5032046;28;20060;-68
2023/03/09 02:53:09;;;;;;;33.85;15.23;;;;;;;0.74;100.00;99228.91;5031186;28;20107;-67
2023/03/09 02:55:35;;;;;;;32.60;13.75;;;;;;;0.75;100.00;99234.09;5030739;28;20476;-67
2023/03/09 02:58:00;;;;;;;33.70;14.48;;;;;;;0.76;100.00;99232.44;5030577;28;20051;-67
2023/03/09 03:00:26;;;;;;;34.28;15.15;;;;;;;0.75;100.00;99233.22;5031765;28;20075;-68
2023/03/09 03:02:51;;;;;;;33.45;14.60;;;;;;;0.76;100.00;99245.25;5031759;28;20052;-68
2023/03/09 03:05:17;;;;;;;33.20;15.02;;;;;;;0.76;100.00;99235.84;5030198;28;20025;-67
2023/03/09 03:07:42;;;;;;;35.97;15.52;;;;;;;0.76;100.00;99228.16;5031493;28;20075;-67
2023/03/09 03:10:09;;;;;;;34.67;15.02;;;;;;;0.75;100.00;99236.66;5031172;28;20044;-67
2023/03/09 03:12:34;;;;;;;35.17;14.88;;;;;;;0.74;100.00;99252.88;5030334;28;20080;-67
2023/03/09 03:15:00;;;;;;;32.65;14.98;;;;;;;0.74;100.00;99236.59;5026348;28;20022;-67
2023/03/09 03:17:25;;;;;;;32.90;14.57;;;;;;;0.73;100.00;99235.75;5031617;28;20440;-67
2023/03/09 03:19:52;;;;;;;36.63;15.18;;;;;;;0.72;100.00;99228.00;5031307;28;20036;-68
2023/03/09 03:22:17;;;;;;;36.47;15.57;;;;;;;0.71;100.00;99237.41;5031339;28;20048;-68
2023/03/09 03:24:43;;;;;;;39.50;15.57;;;;;;;0.72;100.00;99259.63;5029331;28;20499;-68
2023/03/09 03:27:08;;;;;;;35.17;14.75;;;;;;;0.74;100.00;99257.13;5030730;28;20029;-67
2023/03/09 03:29:33;;;;;;;39.85;16.50;;;;;;;0.72;100.00;99267.31;5031407;28;20029;-67
2023/03/09 03:31:59;;;;;;;39.78;17.33;;;;;;;0.74;100.00;99264.81;5031291;28;20096;-67
2023/03/09 03:34:24;;;;;;;36.58;15.88;;;;;;;0.74;100.00;99268.25;5030061;28;20068;-67
2023/03/09 03:36:50;;;;;;;38.78;16.90;;;;;;;0.72;100.00;99280.13;5031170;28;20110;-67
2023/03/09 03:39:15;;;;;;;40.28;16.83;;;;;;;0.72;100.00;99290.38;5031038;28;20368;-67
2023/03/09 03:41:41;;;;;;;39.47;16.95;;;;;;;0.71;100.00;99298.03;5031106;28;20026;-67
2023/03/09 03:44:06;;;;;;;39.92;17.05;;;;;;;0.69;100.00;99308.22;5028258;28;20041;-67
2023/03/09 03:46:31;;;;;;;40.45;17.80;;;;;;;0.69;100.00;99310.78;4994065;28;1092859;-67
2023/03/09 03:48:57;;;;;;;40.78;17.30;;;;;;;0.70;100.00;99315.09;5032185;28;20460;-68
2023/03/09 03:51:22;;;;;;;38.70;17.50;;;;;;;0.71;100.00;99319.41;5032003;28;20116;-67
2023/03/09 03:53:48;;;;;;;43.65;17.13;;;;;;;0.75;100.00;99320.41;5031159;28;20235;-67
2023/03/09 03:56:13;;;;;;;41.33;17.10;;;;;;;0.77;100.00;99314.53;5030935;28;20096;-68
2023/03/09 03:58:39;;;;;;;43.72;18.33;;;;;;;0.78;100.00;99313.72;5031960;28;20033;-67
2023/03/09 04:01:04;;;;;;;41.97;19.08;;;;;;;0.80;100.00;99322.31;5029909;28;20021;-67
2023/03/09 04:03:30;;;;;;;41.42;18.00;;;;;;;0.82;100.00;99324.94;5028812;28;20034;-67
2023/03/09 04:05:55;;;;;;;44.20;17.88;;;;;;;0.79;100.00;99318.00;5030073;28;20025;-67
2023/03/09 04:08:20;;;;;;;43.72;17.90;;;;;;;0.80;100.00;99319.75;5029948;28;20451;-68
2023/03/09 04:10:46;;;;;;;43.63;19.27;;;;;;;0.81;100.00;99320.63;5028969;28;20439;-67
2023/03/09 04:13:11;;;;;;;42.67;18.60;;;;;;;0.81;100.00;99326.66;5031856;28;20108;-67
2023/03/09 04:15:36;;;;;;;44.30;19.13;;;;;;;0.80;100.00;99336.84;5029323;28;20027;-67
2023/03/09 04:18:02;;;;;;;41.50;17.38;;;;;;;0.77;100.00;99332.47;5029951;28;20155;-67
2023/03/09 04:20:27;;;;;;;44.45;18.73;;;;;;;0.75;100.00;99341.75;5031714;28;20538;-68
2023/03/09 04:22:53;;;;;;;48.83;19.38;;;;;;;0.75;100.00;99348.59;5031648;28;20499;-67
2023/03/09 04:25:18;;;;;;;43.55;18.42;;;;;;;0.74;100.00;99347.72;5031297;28;20116;-68
2023/03/09 04:27:44;;;;;;;44.10;18.08;;;;;;;0.73;100.00;99350.25;5030183;28;20037;-68
2023/03/09 04:30:11;;;;;;;49.60;19.38;;;;;;;0.74;100.00;99349.41;5031254;28;20072;-68
2023/03/09 04:32:36;;;;;;;47.50;18.83;;;;;;;0.73;100.00;99356.22;5031457;28;20273;-68
2023/03/09 04:35:02;;;;;;;48.25;18.88;;;;;;;0.75;100.00;99351.16;5030585;28;20169;-68
2023/03/09 04:37:28;;;;;;;46.97;19.40;;;;;;;0.74;100.00;99358.00;5013407;28;20411;-67
2023/03/09 04:39:53;;;;;;;46.75;18.52;;;;;;;0.75;100.00;99361.41;5028770;28;20025;-68
2023/03/09 04:42:18;;;;;;;50.85;19.90;;;;;;;0.74;100.00;99363.13;5031099;28;20497;-68
2023/03/09 04:44:44;;;;;;;50.70;19.30;;;;;;;0.73;100.00;99366.47;5022014;28;20133;-68
2023/03/09 04:47:13;;;;;;;47.22;19.25;;;;;;;0.72;100.00;99372.41;5012705;28;20416;-68
2023/03/09 04:49:41;;;;;;;47.42;18.48;;;;;;;0.71;100.00;99375.81;5029336;28;20019;-68
2023/03/09 04:52:08;;;;;;;52.42;20.38;;;;;;;0.73;100.00;99381.88;5030328;28;20069;-67
2023/03/09 04:54:33;;;;;;;50.95;20.77;;;;;;;0.73;100.00;99379.31;5031261;28;20506;-68
2023/03/09 04:56:59;;;;;;;50.38;20.40;;;;;;;0.75;100.00;99387.03;5030989;28;20053;-68
2023/03/09 04:59:24;;;;;;;50.53;20.23;;;;;;;0.73;100.00;99387.00;5029765;28;20108;-68
2023/03/09 05:01:49;;;;;;;50.92;20.33;;;;;;;0.73;100.00;99387.00;5030808;28;20558;-68
2023/03/09 05:04:15;;;;;;;53.95;21.05;;;;;;;0.75;100.00;99387.03;5030843;28;20075;-67
2023/03/09 05:06:40;;;;;;;52.90;22.17;;;;;;;0.74;100.00;99393.88;5029550;28;20552;-68
2023/03/09 05:09:06;;;;;;;55.05;22.90;;;;;;;0.74;100.00;99400.66;5028803;28;20036;-68
2023/03/09 05:11:32;;;;;;;56.95;22.27;;;;;;;0.73;100.00;99402.38;5030590;28;20056;-67
2023/03/09 05:13:58;;;;;;;55.67;23.50;;;;;;;0.75;100.00;99405.00;5030819;28;20033;-67
2023/03/09 05:16:23;;;;;;;60.08;24.77;;;;;;;0.75;100.00;99418.69;5029021;28;20086;-68
2023/03/09 05:18:50;;;;;;;63.53;24.98;;;;;;;0.74;100.00;99419.50;5027346;28;20029;-68
2023/03/09 05:21:16;;;;;;;63.42;25.00;;;;;;;0.76;100.00;99428.13;5030813;28;20127;-68
2023/03/09 05:23:41;;;;;;;60.03;25.17;;;;;;;0.78;100.00;99429.09;5034924;28;20025;-68
2023/03/09 05:26:07;;;;;;;60.58;25.67;;;;;;;0.77;100.00;99432.44;5029169;28;20048;-68
2023/03/09 05:28:37;;;;;;;60.75;24.42;;;;;;;0.78;100.00;99439.34;5028707;28;20029;-67
2023/03/09 05:31:08;;;;;;;61.55;25.30;;;;;;;0.78;100.00;99431.66;5030143;28;20400;-68
2023/03/09 05:33:33;;;;;;;61.28;24.50;;;;;;;0.79;100.00;99433.38;5010807;28;20041;-68
2023/03/09 05:35:58;;;;;;;60.72;24.65;;;;;;;0.81;100.00;99428.31;5030011;28;20025;-68
2023/03/09 05:38:24;;;;;;;62.72;25.45;;;;;;;0.83;100.00;99434.38;5029044;28;20033;-67
2023/03/09 05:40:49;;;;;;;62.75;25.27;;;;;;;0.84;100.00;99434.44;5030391;28;20029;-68
2023/03/09 05:43:14;;;;;;;58.53;24.60;;;;;;;0.83;100.00;99427.56;5020075;28;20117;-68
2023/03/09 05:45:40;;;;;;;61.63;24.42;;;;;;;0.80;100.00;99432.56;5027420;28;20579;-67
2023/03/09 05:48:05;;;;;;;62.08;24.20;;;;;;;0.78;100.00;99431.66;5030037;28;20025;-68
2023/03/09 05:50:31;;;;;;;63.00;25.33;;;;;;;0.75;100.00;99418.69;5029971;28;20021;-68
2023/03/09 05:52:56;;;;;;;57.03;23.50;;;;;;;0.72;100.00;99428.81;5030107;28;20028;-68
2023/03/09 05:55:22;;;;;;;60.50;24.77;;;;;;;0.69;100.00;99427.00;5026416;28;20392;-68
2023/03/09 05:57:47;;;;;;;61.67;25.08;;;;;;;0.68;100.00;99437.19;5029264;28;20036;-67
2023/03/09 06:00:14;;;;;;;58.40;23.70;;;;;;;0.69;100.00;99442.38;5028993;28;20120;-67
2023/03/09 06:02:39;;;;;;;61.17;24.70;;;;;;;0.72;100.00;99457.00;5029808;28;20033;-68
2023/03/09 06:05:05;;;;;;;59.75;24.25;;;;;;;0.76;100.00;99468.28;5028421;28;20029;-68
2023/03/09 06:07:30;;;;;;;59.97;23.70;;;;;;;0.78;100.00;99454.72;5029807;28;20033;-67
2023/03/09 06:09:56;;;;;;;57.05;23.55;;;;;;;0.81;100.00;99464.19;5029813;28;20033;-68
2023/03/09 06:12:21;;;;;;;56.50;22.90;;;;;;;0.83;100.00;99462.59;5029652;28;20025;-68
2023/03/09 06:14:51;;;;;;;60.03;24.02;;;;;;;0.85;100.00;99454.16;5028295;28;20037;-68
2023/03/09 06:17:16;;;;;;;;;;;;;;;0.89;100.00;99459.41;5028521;28;20029;-68
2023/03/09 06:19:41;;;;;;;59.05;23.17;;;;;;;0.83;100.00;99460.03;5029609;28;19913;-68
2023/03/09 06:22:07;;;;;;;55.67;22.65;;;;;;;0.83;100.00;99478.84;5029567;28;20033;-68
2023/03/09 06:24:32;;;;;;;54.85;23.38;;;;;;;0.86;100.00;99478.97;5028458;28;20018;-67
2023/03/09 06:26:58;;;;;;;53.92;22.38;;;;;;;0.87;100.00;99474.72;5029598;28;20052;-68
2023/03/09 06:29:24;;;;;;;56.10;23.10;;;;;;;0.85;100.00;99482.34;5029602;28;20037;-68
2023/03/09 06:31:50;;;;;;;57.88;24.00;;;;;;;0.84;100.00;99490.84;5029274;28;20025;-68
2023/03/09 06:34:15;;;;;;;60.92;24.65;;;;;;;0.84;100.00;99501.09;5027662;28;20029;-67
2023/03/09 06:36:40;;;;;;;57.25;23.48;;;;;;;0.85;100.00;99502.88;5029453;28;20296;-68
2023/03/09 06:39:05;;;;;;;53.28;22.77;;;;;;;0.88;100.00;99490.97;5029540;28;20022;-68
2023/03/09 06:41:31;;;;;;;59.15;23.45;;;;;;;0.89;100.00;99495.28;5029220;28;20108;-68
2023/03/09 06:43:58;;;;;;;59.13;23.02;;;;;;;0.90;100.00;99504.72;5028181;28;20040;-67
2023/03/09 06:46:24;;;;;;;53.45;22.63;;;;;;;0.93;100.00;99504.84;5028860;28;20210;-67
2023/03/09 06:48:49;;;;;;;60.08;23.20;;;;;;;0.94;100.00;99514.28;5027898;28;20131;-68
2023/03/09 06:51:14;;;;;;;61.88;23.77;;;;;;;0.96;100.00;99520.38;5028353;28;20083;-68
2023/03/09 06:53:40;;;;;;;55.17;22.80;;;;;;;1.00;100.00;99522.22;5028727;28;20053;-68
2023/03/09 06:56:05;;;;;;;59.63;23.95;;;;;;;1.01;100.00;99521.41;5011874;28;20025;-68
2023/03/09 06:58:32;;;;;;;56.80;23.25;;;;;;;1.01;100.00;99534.25;5030081;28;20444;-68
2023/03/09 07:00:58;;;;;;;53.95;22.92;;;;;;;1.04;100.00;99547.19;5028561;28;20022;-68
2023/03/09 07:03:23;;;;;;;58.60;23.58;;;;;;;1.04;100.00;99544.63;5029593;28;20091;-67
2023/03/09 07:05:49;;;;;;;56.55;22.88;;;;;;;1.07;100.00;99551.56;5010827;28;20040;-67
2023/03/09 07:08:15;;;;;;;57.65;22.67;;;;;;;1.08;100.00;99564.47;5028879;28;20542;-67
2023/03/09 07:10:40;;;;;;;60.40;23.50;;;;;;;1.06;100.00;99581.50;5029741;28;20496;-68
2023/03/09 07:13:13;;;;;;;56.38;22.13;;;;;;;1.04;100.00;99576.31;5032367;28;20021;-67
2023/03/09 07:15:38;;;;;;;61.97;23.50;;;;;;;1.07;100.00;99583.22;5030725;28;20067;-68
2023/03/09 07:18:03;;;;;;;55.67;22.67;;;;;;;1.09;100.00;99591.88;5033032;28;20431;-67
2023/03/09 07:20:28;;;;;;;53.85;23.08;;;;;;;1.10;100.00;99609.03;5033062;28;20028;-68
2023/03/09 07:22:54;;;;;;;55.75;22.73;;;;;;;1.12;100.00;99607.38;5033066;28;20025;-67
2023/03/09 07:25:19;;;;;;;58.28;23.27;;;;;;;1.09;100.00;99604.69;5022983;28;20065;-67
2023/03/09 07:27:47;;;;;;;52.05;21.05;;;;;;;1.08;100.00;99605.50;5029352;28;20440;-68
2023/03/09 07:30:13;;;;;;;61.28;23.27;;;;;;;1.06;100.00;99612.28;5015233;28;20021;-68
2023/03/09 07:32:38;;;;;;;55.78;22.75;;;;;;;1.06;100.00;99607.16;5032866;28;20104;-67
2023/03/09 07:35:04;;;;;;;56.72;22.73;;;;;;;1.08;100.00;99610.63;5031783;28;20031;-68
2023/03/09 07:37:30;;;;;;;60.50;23.17;;;;;;;1.13;100.00;99616.84;5032813;28;20566;-67
2023/03/09 07:39:55;;;;;;;58.05;22.85;;;;;;;1.16;100.00;99623.75;5032871;28;20566;-67
2023/03/09 07:42:20;;;;;;;56.47;23.75;;;;;;;1.17;100.00;99636.69;5032339;28;20064;-67
2023/03/09 07:44:46;;;;;;;58.38;23.27;;;;;;;1.17;100.00;99638.34;5030268;28;20459;-67
2023/03/09 07:47:11;;;;;;;51.70;20.33;;;;;;;1.15;100.00;99633.16;5032518;28;20037;-67
2023/03/09 07:49:36;;;;;;;55.05;21.63;;;;;;;1.16;100.00;99645.19;5032569;28;20030;-67
2023/03/09 07:52:02;;;;;;;56.60;22.05;;;;;;;1.16;100.00;99645.19;5032765;28;20047;-67
2023/03/09 07:54:27;;;;;;;57.08;21.25;;;;;;;1.17;100.00;99649.50;5031423;28;20025;-67
2023/03/09 07:56:53;;;;;;;60.55;22.60;;;;;;;1.20;100.00;99641.03;5032423;28;20384;-68
2023/03/09 07:59:19;;;;;;;57.67;22.75;;;;;;;1.20;100.00;99639.38;5031694;28;20095;-67
2023/03/09 08:01:44;;;;;;;57.80;22.35;;;;;;;1.20;100.00;99639.38;5029813;28;20029;-67
2023/03/09 08:04:10;;;;;;;56.55;21.15;;;;;;;1.23;100.00;99648.00;5029622;28;20033;-68
2023/03/09 08:06:39;;;;;;;58.58;22.00;;;;;;;1.24;100.00;99660.03;5031689;28;20132;-67
2023/03/09 08:09:06;;;;;;;;;;;;;;;1.29;100.00;99658.50;5030620;28;20038;-67
2023/03/09 08:11:32;;;;;;;55.50;20.42;;;;;;;1.29;100.00;99661.06;5032251;28;19962;-67
2023/03/09 08:13:58;;;;;;;57.47;21.92;;;;;;;1.29;100.00;99667.09;5028841;28;20104;-67
2023/03/09 08:16:23;;;;;;;58.80;21.83;;;;;;;1.31;100.00;99664.59;5010928;28;20468;-67
2023/03/09 08:18:48;;;;;;;59.65;21.88;;;;;;;1.35;100.00;99671.63;5031320;28;20460;-67
2023/03/09 08:21:14;;;;;;;60.70;22.20;;;;;;;1.36;100.00;99679.38;5031981;28;20072;-68
2023/03/09 08:23:40;;;;;;;62.33;22.58;;;;;;;1.39;100.00;99684.63;5034729;28;20526;-67
2023/03/09 08:26:08;;;;;;;56.10;21.45;;;;;;;1.42;100.00;99691.59;5030805;28;20115;-68
2023/03/09 08:28:33;;;;;;;57.97;21.98;;;;;;;1.45;100.00;99684.03;5031766;28;20102;-68
2023/03/09 08:30:59;;;;;;;55.65;21.02;;;;;;;1.46;100.00;99677.19;5032063;28;20460;-68
2023/03/09 08:33:24;;;;;;;55.50;20.50;;;;;;;1.48;100.00;99686.72;5029945;28;20084;-68
2023/03/09 08:35:50;;;;;;;59.72;21.90;;;;;;;1.51;100.00;99689.41;5030763;28;20071;-68
2023/03/09 08:38:15;;;;;;;52.10;20.95;;;;;;;1.53;100.00;99698.03;5032759;28;20095;-68
2023/03/09 08:40:41;;;;;;;59.03;20.80;;;;;;;1.56;100.00;99704.97;5031614;28;20053;-67
2023/03/09 08:43:06;;;;;;;56.67;20.15;;;;;;;1.56;100.00;99711.00;5030908;28;20029;-68
2023/03/09 08:45:31;;;;;;;56.58;20.65;;;;;;;1.58;100.00;99720.44;5040577;28;20124;-68
2023/03/09 08:47:57;;;;;;;59.55;21.98;;;;;;;1.56;100.00;99711.00;5031722;28;20026;-68
2023/03/09 08:50:22;;;;;;;55.45;19.77;;;;;;;1.57;100.00;99704.19;5027184;28;20037;-68
2023/03/09 08:52:47;;;;;;;54.80;20.33;;;;;;;1.61;100.00;99711.19;5013539;28;20396;-68
2023/03/09 08:55:12;;;;;;;65.32;21.95;;;;;;;1.68;100.00;99720.00;5031445;28;20096;-68
2023/03/09 08:57:38;;;;;;;55.17;20.02;;;;;;;1.72;100.00;99719.31;5031462;28;20037;-68
2023/03/09 09:00:07;;;;;;;58.60;22.23;;;;;;;1.74;100.00;99725.41;5029293;28;20055;-68
2023/03/09 09:02:33;;;;;;;54.35;20.45;;;;;;;1.66;100.00;99730.22;5029043;28;20488;-68
2023/03/09 09:04:59;;;;;;;57.97;20.67;;;;;;;1.61;100.00;99734.31;5030909;28;20028;-68
2023/03/09 09:07:24;;;;;;;60.92;21.38;;;;;;;1.59;100.00;99755.59;5030441;28;20026;-68
2023/03/09 09:09:49;;;;;;;59.60;21.08;;;;;;;1.60;100.00;99750.50;5031428;28;20062;-68
2023/03/09 09:12:15;;;;;;;57.78;20.58;;;;;;;1.65;100.00;99766.09;5029417;28;20049;-68
2023/03/09 09:14:42;;;;;;;58.53;20.83;;;;;;;1.67;100.00;99751.66;5029408;28;20427;-68
2023/03/09 09:17:08;;;;;;;57.78;20.83;;;;;;;1.70;100.00;99759.47;5030924;28;20476;-68
2023/03/09 09:19:34;;;;;;;55.63;20.38;;;;;;;1.68;100.00;99761.09;5029978;28;20400;-68
2023/03/09 09:22:00;;;;;;;52.70;20.30;;;;;;;1.67;100.00;99772.19;5013061;28;20028;-68
2023/03/09 09:24:26;;;;;;;56.92;21.15;;;;;;;1.68;100.00;99755.94;5030525;28;20017;-68
2023/03/09 09:26:54;;;;;;;57.38;20.63;;;;;;;1.69;100.00;99752.59;5031044;28;20129;-68
2023/03/09 09:29:20;;;;;;;55.60;21.00;;;;;;;1.71;100.00;99745.84;5029722;28;20079;-68
2023/03/09 09:31:45;;;;;;;54.40;21.27;;;;;;;1.72;100.00;99755.28;5027509;28;20685;-68
2023/03/09 09:34:11;;;;;;;55.40;20.60;;;;;;;1.67;100.00;99755.09;5034851;28;20029;-68
2023/03/09 09:36:39;;;;;;;59.10;20.58;;;;;;;1.66;100.00;99749.88;5030222;28;20021;-69
2023/03/09 09:39:04;;;;;;;57.20;21.85;;;;;;;1.70;100.00;99754.34;5030725;28;20200;-68
2023/03/09 09:41:43;;;;;;;66.85;21.38;;;;;;;1.77;100.00;99768.28;5034551;28;20565;-69
2023/03/09 09:44:19;;;;;;;58.53;22.55;;;;;;;1.77;100.00;99774.34;5029455;28;20025;-69
2023/03/09 09:46:46;;;;;;;62.72;23.77;;;;;;;1.73;100.00;99775.88;5031004;28;20042;-69
2023/03/09 09:49:21;;;;;;;74.30;27.38;;;;;;;1.71;100.00;99774.09;5030735;28;20178;-68
2023/03/09 09:52:01;;;;;;;70.72;25.60;;;;;;;1.70;100.00;99783.47;5029085;28;20025;-68
2023/03/09 09:54:37;;;;;;;76.57;31.23;;;;;;;1.69;100.00;99783.41;5022883;28;20099;-68
2023/03/09 09:57:09;;;;;;;57.35;21.77;;;;;;;1.68;100.00;99787.66;5012699;28;20343;-68
2023/03/09 10:00:02;;;;;;;62.65;24.35;;;;;;;1.66;100.00;99773.00;5027475;28;20025;-69
2023/03/09 10:02:49;;;;;;;58.05;21.75;;;;;;;1.69;100.00;99783.41;5027535;28;20503;-68
2023/03/09 10:05:25;;;;;;;58.80;21.73;;;;;;;1.73;100.00;99785.28;5023691;28;20029;-68
2023/03/09 10:07:51;;;;;;;63.53;22.58;;;;;;;1.74;100.00;99784.47;5028737;28;20080;-69
2023/03/09 10:10:24;;;;;;;65.07;23.80;;;;;;;1.75;100.00;99786.22;5026867;28;20025;-69
2023/03/09 10:12:49;;;;;;;68.22;27.80;;;;;;;1.75;100.00;99786.22;5029991;28;20029;-69
2023/03/09 10:15:29;;;;;;;61.17;23.23;;;;;;;1.74;100.00;99787.91;5025806;28;20022;-69
2023/03/09 10:17:59;;;;;;;64.22;23.73;;;;;;;1.77;100.00;99784.59;5030061;28;20030;-69
2023/03/09 10:20:57;;;;;;;62.67;22.92;;;;;;;1.85;100.00;99790.03;5027565;28;20021;-69
2023/03/09 10:23:29;;;;;;;65.05;24.13;;;;;;;1.90;100.00;99786.84;5003561;28;20393;-73
2023/03/09 10:26:18;;;;;;;70.05;25.73;;;;;;;1.95;100.00;99783.59;5033874;28;20036;-66
2023/03/09 10:28:47;;;;;;;59.13;23.52;;;;;;;2.00;100.00;99784.66;5015961;28;20045;-65
2023/03/09 10:31:37;;;;;;;64.03;24.00;;;;;;;2.10;100.00;99776.53;5033097;28;20735;-65
2023/03/09 10:34:25;;;;;;;60.92;21.67;;;;;;;2.20;100.00;99776.06;5027565;28;20547;-65
2023/03/09 10:37:04;;;;;;;60.78;21.30;;;;;;;2.25;100.00;99766.84;5028803;28;20033;-65
2023/03/09 10:39:39;;;;;;;61.72;22.88;;;;;;;2.23;100.00;99768.50;5029774;28;20507;-65
2023/03/09 10:42:17;;;;;;;59.63;22.55;;;;;;;2.26;100.00;99773.75;5030436;28;20021;-65
2023/03/09 10:44:50;;;;;;;57.95;21.05;;;;;;;2.32;100.00;99772.22;5028701;28;20018;-65
2023/03/09 10:47:15;;;;;;;63.13;21.90;;;;;;;2.34;100.00;99780.88;5031085;28;20171;-65
2023/03/09 10:49:40;;;;;;;60.45;21.80;;;;;;;2.34;100.00;99774.03;5033092;28;20096;-65
2023/03/09 10:52:15;;;;;;;58.50;21.77;;;;;;;2.36;100.00;99784.38;5033950;28;20396;-65
2023/03/09 10:54:41;;;;;;;66.60;23.65;;;;;;;2.40;100.00;99782.00;5033030;28;20089;-65
2023/03/09 10:57:29;;;;;;;57.05;21.75;;;;;;;2.46;100.00;99788.19;5033623;28;20421;-65
2023/03/09 11:00:06;;;;;;;62.67;24.02;;;;;;;2.49;100.00;99785.72;5033626;28;20030;-65
2023/03/09 11:02:35;;;;;;;57.15;20.77;;;;;;;2.51;100.00;99779.84;5015917;28;20017;-65
2023/03/09 11:05:20;;;;;;;55.60;20.92;;;;;;;2.56;100.00;99777.44;5032537;28;20110;-65
2023/03/09 11:07:53;;;;;;;62.53;22.67;;;;;;;2.61;100.00;99779.38;5029718;28;20492;-65
2023/03/09 11:10:44;;;;;;;59.97;21.85;;;;;;;2.60;100.00;99777.59;5029474;28;20112;-65
2023/03/09 11:13:19;;;;;;;59.05;21.67;;;;;;;2.66;100.00;99773.53;5027710;28;20099;-65
2023/03/09 11:16:06;;;;;;;59.28;23.42;;;;;;;2.72;100.00;99776.31;5033209;28;20026;-65
2023/03/09 11:18:31;;;;;;;57.60;21.98;;;;;;;2.66;100.00;99783.81;5026663;28;20029;-65